createdAt,value
2023-04-14T00:04:57.223Z,98116.14
2023-04-14T00:10:04.811Z,98116.93
2023-04-14T00:15:14.011Z,98115.48
2023-04-14T00:20:21.423Z,98114.73
2023-04-14T00:25:29.073Z,98108.46
2023-04-14T00:30:36.379Z,98110.42
2023-04-14T00:35:44.047Z,98104.11
2023-04-14T00:40:51.916Z,98103.23
2023-04-14T00:46:02.712Z,98106.73
2023-04-14T00:51:11.869Z,98106.92
2023-04-14T00:56:19.497Z,98106.27
2023-04-14T01:01:27.673Z,98102.19
2023-04-14T01:06:36.211Z,98087.91
2023-04-14T01:11:55.869Z,98088.25
2023-04-14T01:17:15.029Z,98091.89
2023-04-14T01:22:28.293Z,98083.98
2023-04-14T01:27:45.086Z,98081.03
2023-04-14T01:32:55.239Z,98074.46
2023-04-14T01:38:10.148Z,98067.83
2023-04-14T01:43:18.894Z,98069.14
2023-04-14T01:48:27.730Z,98064.33
2023-04-14T01:53:37.821Z,98061.71
2023-04-14T01:58:46.993Z,98063.15
2023-04-14T02:03:55.080Z,98061.78
2023-04-14T02:09:04.104Z,98057.39
2023-04-14T02:14:12.493Z,98050.76
2023-04-14T02:19:23.221Z,98040.81
2023-04-14T02:24:31.297Z,98043.35
2023-04-14T02:29:42.213Z,98026.63
2023-04-14T02:34:53.923Z,98016.12
2023-04-14T02:40:09.123Z,98014.98
2023-04-14T02:45:22.669Z,98015.45
2023-04-14T02:50:32.210Z,98016.94
2023-04-14T02:55:40.558Z,98013.81
2023-04-14T03:00:50.506Z,98016.08
2023-04-14T03:05:58.714Z,98010.04
2023-04-14T03:11:08.689Z,98002.72
2023-04-14T03:16:17.177Z,98000.66
2023-04-14T03:21:25.509Z,97994.09
2023-04-14T03:26:37.110Z,97988.30
2023-04-14T03:31:46.321Z,97991.76
2023-04-14T03:36:57.032Z,97998.71
2023-04-14T03:42:06.119Z,97997.53
2023-04-14T03:47:16.088Z,97993.38
2023-04-14T03:52:26.918Z,97988.62
2023-04-14T03:57:35.437Z,97983.38
2023-04-14T04:02:43.937Z,97986.58
2023-04-14T04:07:53.554Z,97987.89
2023-04-14T04:13:02.854Z,97996.71
2023-04-14T04:18:12.656Z,97997.64
2023-04-14T04:23:23.171Z,98001.09
2023-04-14T04:28:31.574Z,97997.33
2023-04-14T04:33:39.700Z,97993.83
2023-04-14T04:38:50.186Z,97999.48
2023-04-14T04:43:59.492Z,98004.83
2023-04-14T04:49:06.891Z,98005.34
2023-04-14T04:54:14.973Z,98008.26
2023-04-14T04:59:22.172Z,98002.90
2023-04-14T05:04:29.718Z,98002.16
2023-04-14T05:09:37.406Z,98000.02
2023-04-14T05:14:45.366Z,97985.98
2023-04-14T05:19:53.772Z,97975.91
2023-04-14T05:25:01.795Z,97973.70
2023-04-14T05:30:11.643Z,97968.27
2023-04-14T05:35:19.666Z,97958.48
2023-04-14T05:40:30.660Z,97949.41
2023-04-14T05:45:39.286Z,97941.49
2023-04-14T05:50:47.300Z,97929.14
2023-04-14T05:55:57.626Z,97923.08
2023-04-14T06:01:05.523Z,97923.79
2023-04-14T06:06:13.133Z,97921.34
2023-04-14T06:11:20.847Z,97920.33
2023-04-14T06:16:28.757Z,97916.09
2023-04-14T06:21:36.003Z,97919.57
2023-04-14T06:26:43.563Z,97922.16
2023-04-14T06:31:52.115Z,97922.07
2023-04-14T06:37:02.905Z,97926.92
2023-04-14T06:42:13.442Z,97933.83
2023-04-14T06:47:22.732Z,97934.04
2023-04-14T06:52:30.389Z,97930.86
2023-04-14T06:57:37.945Z,97925.93
2023-04-14T07:02:45.569Z,97915.12
2023-04-14T07:07:53.599Z,97910.77
2023-04-14T07:13:01.241Z,97889.42
2023-04-14T07:18:09.756Z,97881.45
2023-04-14T07:23:17.362Z,97879.12
2023-04-14T07:28:26.091Z,97872.11
2023-04-14T07:33:34.952Z,97878.36
2023-04-14T07:38:44.088Z,97880.38
2023-04-14T07:43:55.750Z,97887.20
2023-04-14T07:49:03.357Z,97889.73
2023-04-14T07:54:11.491Z,97892.77
2023-04-14T07:59:19.248Z,97892.34
2023-04-14T08:04:28.011Z,97893.83
2023-04-14T08:09:36.152Z,97882.70
2023-04-14T08:14:43.920Z,97873.14
2023-04-14T08:19:51.749Z,97864.54
2023-04-14T08:24:59.317Z,97861.10
2023-04-14T08:30:09.585Z,97849.85
2023-04-14T08:35:35.540Z,97843.97
2023-04-14T08:40:49.317Z,97839.59
2023-04-14T08:45:59.519Z,97836.91
2023-04-14T08:51:15.837Z,97832.36
2023-04-14T08:56:27.379Z,97830.40
2023-04-14T09:01:37.196Z,97828.73
2023-04-14T09:06:44.698Z,97834.54
2023-04-14T09:11:53.124Z,97833.49
2023-04-14T09:17:00.890Z,97824.58
2023-04-14T09:22:09.651Z,97830.48
2023-04-14T09:27:17.865Z,97825.16
2023-04-14T09:32:25.176Z,97826.41
2023-04-14T09:37:45.383Z,97814.73
2023-04-14T09:42:52.839Z,97808.90
2023-04-14T09:54:04.441Z,97806.56
2023-04-14T09:59:10.215Z,97801.64
2023-04-14T10:04:23.972Z,97795.36
2023-04-14T10:09:30.911Z,97795.11
2023-04-14T10:14:35.814Z,97785.38
2023-04-14T10:19:39.884Z,97778.91
2023-04-14T10:24:43.914Z,97779.80
2023-04-14T10:29:47.889Z,97779.02
2023-04-14T10:34:59.662Z,97770.05
2023-04-14T10:40:06.454Z,97770.73
2023-04-14T10:45:12.232Z,97758.82
2023-04-14T10:50:18.316Z,97751.20
2023-04-14T10:55:24.006Z,97743.44
2023-04-14T11:00:31.368Z,97736.20
2023-04-14T11:05:36.254Z,97734.37
2023-04-14T11:10:41.376Z,97736.09
2023-04-14T11:15:50.783Z,97731.30
2023-04-14T11:21:01.094Z,97721.19
2023-04-14T11:26:07.690Z,97717.10
2023-04-14T11:31:13.301Z,97712.72
2023-04-14T11:36:17.504Z,97717.14
2023-04-14T11:41:21.902Z,97716.46
2023-04-14T11:46:25.988Z,97711.70
2023-04-14T11:51:31.859Z,97708.86
2023-04-14T11:56:36.776Z,97712.91
2023-04-14T12:01:40.584Z,97706.63
2023-04-14T12:06:45.016Z,97700.17
2023-04-14T12:11:55.305Z,97692.08
2023-04-14T12:16:59.308Z,97690.84
2023-04-14T12:22:03.065Z,97689.21
2023-04-14T12:27:08.924Z,97688.01
2023-04-14T12:32:13.791Z,97674.70
2023-04-14T12:37:17.977Z,97663.70
2023-04-14T12:42:21.707Z,97659.73
2023-04-14T12:47:30.156Z,97651.77
2023-04-14T12:52:34.582Z,97643.83
2023-04-14T12:57:38.418Z,97645.31
2023-04-14T13:02:44.835Z,97629.48
2023-04-14T13:07:50.201Z,97622.71
2023-04-14T13:12:53.842Z,97621.14
2023-04-14T13:17:59.929Z,97611.69
2023-04-14T13:23:03.769Z,97614.48
2023-04-14T13:28:07.568Z,97608.09
2023-04-14T13:33:11.684Z,97603.67
2023-04-14T13:38:15.866Z,97602.23
2023-04-14T13:43:19.654Z,97600.98
2023-04-14T13:48:23.621Z,97607.83
2023-04-14T13:53:27.335Z,97600.10
2023-04-14T13:58:31.722Z,97596.36
2023-04-14T14:03:35.392Z,97599.39
2023-04-14T14:08:41.908Z,97591.70
2023-04-14T14:13:44.954Z,97588.59
2023-04-14T14:18:48.530Z,97588.55
2023-04-14T14:23:52.310Z,97590.73
2023-04-14T14:28:56.190Z,97597.30
2023-04-14T14:34:00.207Z,97596.64
2023-04-14T14:39:04.632Z,97600.96
2023-04-14T14:44:08.427Z,97598.23
2023-04-14T14:49:15.908Z,97596.09
2023-04-14T14:54:19.615Z,97595.33
2023-04-14T14:59:23.381Z,97594.59
2023-04-14T15:04:27.367Z,97591.01
2023-04-14T15:09:31.998Z,97590.89
2023-04-14T15:14:35.885Z,97589.52
2023-04-14T15:19:40.936Z,97589.09
2023-04-14T15:24:45.947Z,97593.63
2023-04-14T15:29:49.780Z,97598.06
2023-04-14T15:34:54.417Z,97601.91
2023-04-14T15:39:58.484Z,97609.96
2023-04-14T15:45:02.294Z,97612.67
2023-04-14T15:50:09.901Z,97611.02
2023-04-14T15:55:14.995Z,97615.94
2023-04-14T16:00:22.007Z,97611.23
2023-04-14T16:05:25.755Z,97605.76
2023-04-14T16:10:29.828Z,97599.85
2023-04-14T16:15:34.423Z,97598.33
2023-04-14T16:20:37.998Z,97596.03
2023-04-14T16:25:42.073Z,97598.82
2023-04-14T16:30:45.962Z,97601.08
2023-04-14T16:35:49.746Z,97598.77
2023-04-14T16:40:56.959Z,97598.88
2023-04-14T16:46:04.736Z,97602.83
2023-04-14T16:51:10.076Z,97600.40
2023-04-14T16:56:14.774Z,97600.85
2023-04-14T17:01:19.849Z,97596.17
2023-04-14T17:06:23.744Z,97599.82
2023-04-14T17:11:27.616Z,97600.59
2023-04-14T17:16:31.954Z,97606.02
2023-04-14T17:21:35.727Z,97611.85
2023-04-14T17:26:39.671Z,97607.48
2023-04-14T17:31:44.550Z,97610.70
2023-04-14T17:36:49.446Z,97608.10
2023-04-14T17:41:54.384Z,97609.39
2023-04-14T17:47:00.324Z,97614.16
2023-04-14T17:52:04.190Z,97616.12
2023-04-14T17:57:09.539Z,97623.76
2023-04-14T18:02:15.037Z,97619.34
2023-04-14T18:07:19.339Z,97626.84
2023-04-14T18:12:23.450Z,97631.71
2023-04-14T18:32:51.506Z,97654.06
2023-04-14T18:37:59.099Z,97649.29
2023-04-14T18:43:06.371Z,97647.48
2023-04-14T18:48:14.612Z,97649.34
2023-04-14T18:53:21.933Z,97651.29
2023-04-14T18:58:30.610Z,97655.29
2023-04-14T19:03:38.794Z,97653.83
2023-04-14T19:08:46.462Z,97648.67
2023-04-14T19:13:55.013Z,97648.39
2023-04-14T19:19:02.745Z,97647.94
2023-04-14T19:24:10.418Z,97644.86
2023-04-14T19:29:19.042Z,97645.88
2023-04-14T19:34:27.766Z,97644.20
2023-04-14T19:39:36.159Z,97638.62
2023-04-14T19:44:43.718Z,97647.02
2023-04-14T19:49:51.781Z,97652.50
2023-04-14T19:54:59.560Z,97653.80
2023-04-14T20:00:09.342Z,97654.66
2023-04-14T20:05:17.143Z,97655.30
2023-04-14T20:10:24.635Z,97658.48
2023-04-14T20:15:32.389Z,97670.92
2023-04-14T20:20:41.972Z,97658.99
2023-04-14T20:25:50.977Z,97665.05
2023-04-14T20:30:58.500Z,97668.65
2023-04-14T20:36:07.080Z,97673.47
2023-04-14T20:41:14.923Z,97651.25
2023-04-14T20:46:23.486Z,97649.73
2023-04-14T20:51:32.573Z,97656.06
2023-04-14T20:56:40.785Z,97662.07
2023-04-14T21:01:49.453Z,97658.23
2023-04-14T21:06:57.754Z,97664.23
2023-04-14T21:12:15.727Z,97683.74
2023-04-14T21:17:24.250Z,97692.80
2023-04-14T21:22:32.461Z,97703.29
2023-04-14T21:27:39.863Z,97704.15
2023-04-14T21:32:47.439Z,97700.34
2023-04-14T21:37:55.344Z,97708.80
2023-04-14T21:43:02.890Z,97708.21
2023-04-14T21:48:10.886Z,97713.25
2023-04-14T21:53:19.452Z,97713.77
2023-04-14T21:58:27.439Z,97718.50
2023-04-14T22:03:37.573Z,97719.57
2023-04-14T22:08:45.145Z,97725.59
2023-04-14T22:13:52.815Z,97730.80
2023-04-14T22:19:01.122Z,97736.21
2023-04-14T22:24:10.295Z,97739.73
2023-04-14T22:29:17.970Z,97747.66
2023-04-14T22:34:25.605Z,97748.69
2023-04-14T22:39:33.238Z,97757.11
2023-04-14T22:44:41.341Z,97760.41
2023-04-14T22:49:48.799Z,97770.37
2023-04-14T22:54:56.730Z,97774.04
2023-04-14T23:00:09.250Z,97766.16
2023-04-14T23:05:17.209Z,97771.60
2023-04-14T23:10:24.922Z,97762.60
2023-04-14T23:15:33.016Z,97772.91
2023-04-14T23:20:40.798Z,97772.93
2023-04-14T23:25:48.261Z,97780.63
2023-04-14T23:30:56.121Z,97783.81
2023-04-14T23:36:03.498Z,97790.91
2023-04-14T23:41:11.647Z,97789.67
2023-04-14T23:46:19.395Z,97780.40
2023-04-14T23:51:27.162Z,97783.66
2023-04-14T23:56:34.794Z,97788.64
